Lammy — PBRE — position and weather

sailwx.info

Track history (hours):
 
Tides and Currents Weather Stations Pressure Air Temp Water Temp Dewpoint Dewpoint Depression Visibility Wind Speed Wind Dir Waves Ship Positions

Lammy

Last reported at 2015-Mar-23 14:34 UTC. Time now 2015-Mar-27 11:53 UTC.
Position N 57°35' E 017°20'.

Length 95 m; draft 4.5 m.

Type: Cargo ship. MMSI: 245391000.

Date/timePositionNaut miles runAvg speedWind from/ knotsBaromVisibWave heightAir tempDewpointWater temp
2015-Mar-23 14:34N 57°35' E 017°20'1212.3
2015-Mar-23 13:34N 57°23' E 017°18'1612.0
2015-Mar-23 12:14N 57°07' E 017°10'912.2
2015-Mar-23 11:29N 56°59' E 017°05'10710.8
2015-Mar-23 01:33N 55°33' E 015°10'1212.1
2015-Mar-23 00:33N 55°27' E 014°52'1212.0
2015-Mar-22 23:34N 55°19' E 014°35'1212.3
2015-Mar-22 22:33N 55°10' E 014°22'1212.1
2015-Mar-22 21:33N 55°02' E 014°06'1212.0
2015-Mar-22 20:33N 54°57' E 013°46'1212.0
2015-Mar-22 19:33N 54°52' E 013°27'1211.9
2015-Mar-22 18:33N 54°47' E 013°09'1212.0
2015-Mar-22 17:33N 54°42' E 012°50'1311.9
2015-Mar-22 16:26N 54°35' E 012°30'1112.4
2015-Mar-22 15:33N 54°29' E 012°15'1211.8
2015-Mar-22 14:33N 54°25' E 011°56'1312.6
2015-Mar-22 13:34N 54°28' E 011°35'1312.8
2015-Mar-22 12:34N 54°33' E 011°15'1713.1
2015-Mar-22 11:16N 54°32' E 010°46'913.0
2015-Mar-22 10:34N 54°30' E 010°30'1211.5
2015-Mar-22 09:34N 54°24' E 010°13'4 3.9
2015-Mar-22 08:34N 54°22' E 010°07'6 5.6
2015-Mar-22 07:33N 54°21' E 009°58'6 5.5
2015-Mar-22 06:33N 54°22' E 009°49'9 7.8
2015-Mar-22 05:28N 54°16' E 009°38'13 6.7
2015-Mar-22 03:28N 54°08' E 009°20'8 8.6
2015-Mar-22 02:33N 54°00' E 009°18'8 8.3
2015-Mar-22 01:33N 53°54' E 009°09'2 2.2
2015-Mar-22 00:33N 53°53' E 009°05'1010.4
2015-Mar-21 23:33N 53°50' E 008°48'1614.1
2015-Mar-21 22:27N 53°59' E 008°26'1613.4
2015-Mar-21 21:15N 53°58' E 007°59'912.8
2015-Mar-21 20:32N 53°56' E 007°44'1212.4
2015-Mar-21 19:33N 53°53' E 007°24'43 9.6
2015-Mar-21 15:07N 53°42' E 006°13'5 9.6
2015-Mar-21 14:33N 53°41' E 006°05'10 9.8
2015-Mar-21 13:33N 53°38' E 005°49'1010.3
2015-Mar-21 12:33N 53°35' E 005°32'1110.6
2015-Mar-21 11:34N 53°31' E 005°16'1111.0
2015-Mar-21 10:33N 53°27' E 004°58'144 3.1
2015-Mar-19 12:14N 53°06' E 000°60'812.0
2015-Mar-19 11:33N 53°01' E 001°11'1212.1
2015-Mar-19 10:33N 52°56' E 001°28'1111.3
2015-Mar-19 09:33N 52°47' E 001°41'1010.0
2015-Mar-19 08:34N 52°39' E 001°51'9 8.9
2015-Mar-19 07:33N 52°30' E 001°52'9 9.3
2015-Mar-19 06:33N 52°21' E 001°50'2711.4
2015-Mar-19 04:12N 51°55' E 001°48'913.3
2015-Mar-19 03:33N 51°46' E 001°48'1313.4
2015-Mar-19 02:33N 51°33' E 001°47'1414.1
2015-Mar-19 01:33N 51°19' E 001°41'1414.2
2015-Mar-19 00:34N 51°07' E 001°28'2214.9
2015-Mar-18 23:05N 50°54' E 001°00'713.7
2015-Mar-18 22:33N 50°50' E 000°50'1313.5
2015-Mar-18 21:33N 50°43' E 000°33'1414.1
2015-Mar-18 20:33N 50°43' E 000°10'1414.0
2015-Mar-18 19:33N 50°47' W 000°11'4 0.1
2015-Mar-16 21:20N 50°50' W 000°13'1 0.8
2015-Mar-16 20:33N 50°50' W 000°14'4 3.6
2015-Mar-16 19:28N 50°47' W 000°10'14 4.9
2015-Mar-16 16:33N 50°43' E 000°11'9 8.6
2015-Mar-16 15:33N 50°42' E 000°25'10 9.9
2015-Mar-16 14:33N 50°44' E 000°40'1311.2
2015-Mar-16 13:21N 50°50' E 000°59'1111.7
2015-Mar-16 12:25N 50°57' E 001°12'1011.2
2015-Mar-16 11:33N 51°03' E 001°24'1010.0
2015-Mar-16 10:34N 51°09' E 001°36'9 9.1
2015-Mar-16 09:34N 51°16' E 001°47'10 9.4
2015-Mar-16 08:33N 51°24' E 001°54'1110.0
2015-Mar-16 07:28N 51°33' E 002°05'14611.0
2015-Mar-15 18:11N 53°26' E 004°36'711.3
2015-Mar-15 17:33N 53°30' E 004°46'1111.2
2015-Mar-15 16:33N 53°34' E 005°04'1010.4
2015-Mar-15 15:33N 53°37' E 005°21'1010.0
2015-Mar-15 14:33N 53°40' E 005°37'10 9.9
2015-Mar-15 13:32N 53°43' E 005°53'4911.1
2015-Mar-15 09:10N 53°57' E 007°12'812.4
2015-Mar-15 08:33N 53°59' E 007°24'1212.4
2015-Mar-15 07:34N 54°02' E 007°45'1212.3
2015-Mar-15 06:33N 54°01' E 008°06'1212.2
2015-Mar-15 05:33N 53°59' E 008°26'10 9.8
2015-Mar-15 04:33N 53°55' E 008°41'8 8.3
2015-Mar-15 03:33N 53°51' E 008°53'10 9.6
2015-Mar-15 02:33N 53°54' E 009°09'0 0.5
2015-Mar-15 01:33N 53°54' E 009°09'3 3.2
2015-Mar-15 00:33N 53°56' E 009°13'8 8.0
2015-Mar-14 23:33N 54°04' E 009°19'9 3.8
2015-Mar-14 21:10N 54°11' E 009°28'6 7.7
2015-Mar-14 20:27N 54°14' E 009°36'5 6.0
2015-Mar-14 19:33N 54°18' E 009°42'7 7.0
2015-Mar-14 18:33N 54°22' E 009°52'6 6.5
2015-Mar-14 17:33N 54°22' E 010°03'1 1.4
2015-Mar-14 16:34N 54°22' E 010°05'3 2.6
2015-Mar-14 15:34N 54°22' E 010°10'9 8.5
2015-Mar-14 14:34N 54°29' E 010°17'2512.6
2015-Mar-14 12:33N 54°36' E 010°59'1413.7
2015-Mar-14 11:34N 54°33' E 011°22'1313.3
2015-Mar-14 10:33N 54°27' E 011°43'1312.6
2015-Mar-14 09:33N 54°27' E 012°05'1211.7
2015-Mar-14 08:33N 54°37' E 012°16'1313.0
2015-Mar-14 07:33N 54°44' E 012°34'1412.8
2015-Mar-14 06:26N 54°50' E 012°57'2412.9
2015-Mar-14 04:34N 54°58' E 013°36'1313.1
2015-Mar-14 03:33N 55°02' E 013°58'1212.3
2015-Mar-14 02:33N 55°11' E 014°13'1212.2
2015-Mar-14 01:33N 55°20' E 014°27'1312.8
2015-Mar-14 00:33N 55°30' E 014°42'1312.8
2015-Mar-13 23:33N 55°37' E 015°01'1413.0
2015-Mar-13 22:30N 55°45' E 015°21'  
Track history (hours):
 
Tides and Currents Weather Stations Pressure Air Temp Water Temp Dewpoint Dewpoint Depression Visibility Wind Speed Wind Dir Waves Ship Positions

Lammy

Last reported at 2015-Mar-23 14:34 UTC. Time now 2015-Mar-27 11:53 UTC.
Position N 57°35' E 017°20'.

Length 95 m; draft 4.5 m.

Type: Cargo ship. MMSI: 245391000.

Date/timePositionNaut miles runAvg speedWind from/ knotsBaromVisibWave heightAir tempDewpointWater temp
2015-Mar-23 14:34N 57°35' E 017°20'1212.3
2015-Mar-23 13:34N 57°23' E 017°18'1612.0
2015-Mar-23 12:14N 57°07' E 017°10'912.2
2015-Mar-23 11:29N 56°59' E 017°05'10710.8
2015-Mar-23 01:33N 55°33' E 015°10'1212.1
2015-Mar-23 00:33N 55°27' E 014°52'1212.0
2015-Mar-22 23:34N 55°19' E 014°35'1212.3
2015-Mar-22 22:33N 55°10' E 014°22'1212.1
2015-Mar-22 21:33N 55°02' E 014°06'1212.0
2015-Mar-22 20:33N 54°57' E 013°46'1212.0
2015-Mar-22 19:33N 54°52' E 013°27'1211.9
2015-Mar-22 18:33N 54°47' E 013°09'1212.0
2015-Mar-22 17:33N 54°42' E 012°50'1311.9
2015-Mar-22 16:26N 54°35' E 012°30'1112.4
2015-Mar-22 15:33N 54°29' E 012°15'1211.8
2015-Mar-22 14:33N 54°25' E 011°56'1312.6
2015-Mar-22 13:34N 54°28' E 011°35'1312.8
2015-Mar-22 12:34N 54°33' E 011°15'1713.1
2015-Mar-22 11:16N 54°32' E 010°46'913.0
2015-Mar-22 10:34N 54°30' E 010°30'1211.5
2015-Mar-22 09:34N 54°24' E 010°13'4 3.9
2015-Mar-22 08:34N 54°22' E 010°07'6 5.6
2015-Mar-22 07:33N 54°21' E 009°58'6 5.5
2015-Mar-22 06:33N 54°22' E 009°49'9 7.8
2015-Mar-22 05:28N 54°16' E 009°38'13 6.7
2015-Mar-22 03:28N 54°08' E 009°20'8 8.6
2015-Mar-22 02:33N 54°00' E 009°18'8 8.3
2015-Mar-22 01:33N 53°54' E 009°09'2 2.2
2015-Mar-22 00:33N 53°53' E 009°05'1010.4
2015-Mar-21 23:33N 53°50' E 008°48'1614.1
2015-Mar-21 22:27N 53°59' E 008°26'1613.4
2015-Mar-21 21:15N 53°58' E 007°59'912.8
2015-Mar-21 20:32N 53°56' E 007°44'1212.4
2015-Mar-21 19:33N 53°53' E 007°24'43 9.6
2015-Mar-21 15:07N 53°42' E 006°13'5 9.6
2015-Mar-21 14:33N 53°41' E 006°05'10 9.8
2015-Mar-21 13:33N 53°38' E 005°49'1010.3
2015-Mar-21 12:33N 53°35' E 005°32'1110.6
2015-Mar-21 11:34N 53°31' E 005°16'1111.0
2015-Mar-21 10:33N 53°27' E 004°58'144 3.1
2015-Mar-19 12:14N 53°06' E 000°60'812.0
2015-Mar-19 11:33N 53°01' E 001°11'1212.1
2015-Mar-19 10:33N 52°56' E 001°28'1111.3
2015-Mar-19 09:33N 52°47' E 001°41'1010.0
2015-Mar-19 08:34N 52°39' E 001°51'9 8.9
2015-Mar-19 07:33N 52°30' E 001°52'9 9.3
2015-Mar-19 06:33N 52°21' E 001°50'2711.4
2015-Mar-19 04:12N 51°55' E 001°48'913.3
2015-Mar-19 03:33N 51°46' E 001°48'1313.4
2015-Mar-19 02:33N 51°33' E 001°47'1414.1
2015-Mar-19 01:33N 51°19' E 001°41'1414.2
2015-Mar-19 00:34N 51°07' E 001°28'2214.9
2015-Mar-18 23:05N 50°54' E 001°00'713.7
2015-Mar-18 22:33N 50°50' E 000°50'1313.5
2015-Mar-18 21:33N 50°43' E 000°33'1414.1
2015-Mar-18 20:33N 50°43' E 000°10'1414.0
2015-Mar-18 19:33N 50°47' W 000°11'4 0.1
2015-Mar-16 21:20N 50°50' W 000°13'1 0.8
2015-Mar-16 20:33N 50°50' W 000°14'4 3.6
2015-Mar-16 19:28N 50°47' W 000°10'14 4.9
2015-Mar-16 16:33N 50°43' E 000°11'9 8.6
2015-Mar-16 15:33N 50°42' E 000°25'10 9.9
2015-Mar-16 14:33N 50°44' E 000°40'1311.2
2015-Mar-16 13:21N 50°50' E 000°59'1111.7
2015-Mar-16 12:25N 50°57' E 001°12'1011.2
2015-Mar-16 11:33N 51°03' E 001°24'1010.0
2015-Mar-16 10:34N 51°09' E 001°36'9 9.1
2015-Mar-16 09:34N 51°16' E 001°47'10 9.4
2015-Mar-16 08:33N 51°24' E 001°54'1110.0
2015-Mar-16 07:28N 51°33' E 002°05'14611.0
2015-Mar-15 18:11N 53°26' E 004°36'711.3
2015-Mar-15 17:33N 53°30' E 004°46'1111.2
2015-Mar-15 16:33N 53°34' E 005°04'1010.4
2015-Mar-15 15:33N 53°37' E 005°21'1010.0
2015-Mar-15 14:33N 53°40' E 005°37'10 9.9
2015-Mar-15 13:32N 53°43' E 005°53'4911.1
2015-Mar-15 09:10N 53°57' E 007°12'812.4
2015-Mar-15 08:33N 53°59' E 007°24'1212.4
2015-Mar-15 07:34N 54°02' E 007°45'1212.3
2015-Mar-15 06:33N 54°01' E 008°06'1212.2
2015-Mar-15 05:33N 53°59' E 008°26'10 9.8
2015-Mar-15 04:33N 53°55' E 008°41'8 8.3
2015-Mar-15 03:33N 53°51' E 008°53'10 9.6
2015-Mar-15 02:33N 53°54' E 009°09'0 0.5
2015-Mar-15 01:33N 53°54' E 009°09'3 3.2
2015-Mar-15 00:33N 53°56' E 009°13'8 8.0
2015-Mar-14 23:33N 54°04' E 009°19'9 3.8
2015-Mar-14 21:10N 54°11' E 009°28'6 7.7
2015-Mar-14 20:27N 54°14' E 009°36'5 6.0
2015-Mar-14 19:33N 54°18' E 009°42'7 7.0
2015-Mar-14 18:33N 54°22' E 009°52'6 6.5
2015-Mar-14 17:33N 54°22' E 010°03'1 1.4
2015-Mar-14 16:34N 54°22' E 010°05'3 2.6
2015-Mar-14 15:34N 54°22' E 010°10'9 8.5
2015-Mar-14 14:34N 54°29' E 010°17'2512.6
2015-Mar-14 12:33N 54°36' E 010°59'1413.7
2015-Mar-14 11:34N 54°33' E 011°22'1313.3
2015-Mar-14 10:33N 54°27' E 011°43'1312.6
2015-Mar-14 09:33N 54°27' E 012°05'1211.7
2015-Mar-14 08:33N 54°37' E 012°16'1313.0
2015-Mar-14 07:33N 54°44' E 012°34'1412.8
2015-Mar-14 06:26N 54°50' E 012°57'2412.9
2015-Mar-14 04:34N 54°58' E 013°36'1313.1
2015-Mar-14 03:33N 55°02' E 013°58'1212.3
2015-Mar-14 02:33N 55°11' E 014°13'1212.2
2015-Mar-14 01:33N 55°20' E 014°27'1312.8
2015-Mar-14 00:33N 55°30' E 014°42'1312.8
2015-Mar-13 23:33N 55°37' E 015°01'1413.0
2015-Mar-13 22:30N 55°45' E 015°21'  

Dump ship's entire track history